Diamond City, Alberta

8:53 PM MST on November 22, 2014 (GMT -0700)
Lethbridge Airport | Change Station
CLOSE
Current Station
Airport
Location: Lethbridge Airport,
Elevation: 3048 ft
Nearby Weather Stations

Elev 3048 ft 49.63 °N, 112.79 °W | Updated 27 minutes ago

Overcast
Overcast
34 °F
Feels Like 31 °F
N
4
Wind Variable Wind from NW

Today
High -- | Low -- °F
--% Chance of Precip.
Yesterday
High -- | Low -- °F
Precip. -- in
7:53 AM 4:40 PM
New Moon, 0% visible
Pressure 29.62 in
Visibility 15.0 miles
Clouds Mostly Cloudy 4000 ft
Overcast 8000 ft
Windchill 31 °F
Dew Point 32 °F
Humidity 93%
Rainfall 0.00 in
Snow Depth Not available.
UV 0 out of 12
Pollen Not available.
Air Quality Not available.
Flu Activity Not available.
SPECI CYQL 230326Z 32003KT 290V020 15SM BKN040 OVC080 01/00 A2954 RMK SC5AC3 SLP029

More Conditions Fewer Conditions

Pressure 29.62 in
Visibility 15.0 miles
Clouds Mostly Cloudy 4000 ft
Overcast 8000 ft
Windchill 31 °F
Dew Point 32 °F
Humidity 93%
Rainfall 0.00 in
Snow Depth Not available.
UV 0 out of 12
Pollen Not available.
Air Quality Not available.
Flu Activity Not available.
SPECI CYQL 230326Z 32003KT 290V020 15SM BKN040 OVC080 01/00 A2954 RMK SC5AC3 SLP029

More Conditions Fewer Conditions

10-Day Weather Forecast

Almanac

Astronomy

Nov. 22, 2014 Rise Set
Actual Time
Civil Twilight
Nautical Twilight
Astronomical Twilight
Moon
Length of Visible Light
Length of Day
Tomorrow will be .
, % of the Moon is Illuminated

Today's Extremes

Country Highs Country Lows

Community

WunderPhotos

Upload Photos

1,772,990 photos uploaded!

WunderBlogs® & News

Nearby

Air Quality

  Air Quality AQ Index Pollutant
Not available.

Snow Depth

Station Depth Elevation

Earthquake Activity

City Distance Mag. Time & Date
Minimum magnitude displayed is 2.5.

Coastal Water Temperatures

Place Temperature

Nearby Weather Stations